createdAt,value
2018-07-14T00:00:46.655Z,71.12
2018-07-14T00:03:15.292Z,70.44
2018-07-14T00:05:44.030Z,70.89
2018-07-14T00:08:12.796Z,70.91
2018-07-14T00:10:41.423Z,70.86
2018-07-14T00:13:10.060Z,70.93
2018-07-14T00:15:38.765Z,71.13
2018-07-14T00:18:07.372Z,71.00
2018-07-14T00:20:35.956Z,71.29
2018-07-14T00:23:04.591Z,71.10
2018-07-14T00:25:38.519Z,72.14
2018-07-14T00:28:07.160Z,71.65
2018-07-14T00:31:38.274Z,71.75
2018-07-14T00:34:07.020Z,72.12
2018-07-14T00:36:35.673Z,72.22
2018-07-14T00:39:05.103Z,72.29
2018-07-14T00:41:33.717Z,71.87
2018-07-14T00:44:02.351Z,72.18
2018-07-14T00:46:31.062Z,72.39
2018-07-14T00:48:59.646Z,71.88
2018-07-14T00:51:28.398Z,72.05
2018-07-14T00:53:57.455Z,71.85
2018-07-14T00:56:26.220Z,71.93
2018-07-14T00:58:54.923Z,72.09
2018-07-14T01:01:23.526Z,72.02
2018-07-14T01:03:52.148Z,72.08
2018-07-14T01:06:20.903Z,72.34
2018-07-14T01:08:49.559Z,72.24
2018-07-14T01:11:18.257Z,72.25
2018-07-14T01:13:46.950Z,72.42
2018-07-14T01:16:15.571Z,71.91
2018-07-14T01:18:44.175Z,72.50
2018-07-14T01:21:12.892Z,72.32
2018-07-14T01:23:41.509Z,72.32
2018-07-14T01:26:10.120Z,72.24
2018-07-14T01:28:38.772Z,72.49
2018-07-14T01:31:07.579Z,72.09
2018-07-14T01:33:36.222Z,72.37
2018-07-14T01:36:04.908Z,72.43
2018-07-14T01:38:33.551Z,72.63
2018-07-14T01:41:02.218Z,72.20
2018-07-14T01:43:31.212Z,72.23
2018-07-14T01:45:59.871Z,72.27
2018-07-14T01:48:28.609Z,72.35
2018-07-14T01:50:57.207Z,72.59
2018-07-14T01:53:25.966Z,72.58
2018-07-14T01:55:54.774Z,72.98
2018-07-14T01:58:23.537Z,72.76
2018-07-14T02:00:52.196Z,72.66
2018-07-14T02:03:20.891Z,72.72
2018-07-14T02:05:49.525Z,72.75
2018-07-14T02:08:18.165Z,72.39
2018-07-14T02:10:46.893Z,72.85
2018-07-14T02:13:15.647Z,72.27
2018-07-14T02:15:44.479Z,72.81
2018-07-14T02:18:13.238Z,72.82
2018-07-14T02:20:41.900Z,73.25
2018-07-14T02:23:10.539Z,73.12
2018-07-14T02:25:39.146Z,72.64
2018-07-14T02:28:07.879Z,72.97
2018-07-14T02:30:36.601Z,72.91
2018-07-14T02:33:05.301Z,72.59
2018-07-14T02:35:34.022Z,72.52
2018-07-14T02:38:02.590Z,72.76
2018-07-14T02:40:31.299Z,72.89
2018-07-14T02:42:59.971Z,72.79
2018-07-14T02:45:28.675Z,72.21
2018-07-14T02:47:57.324Z,72.35
2018-07-14T02:50:26.069Z,72.13
2018-07-14T02:52:54.991Z,72.36
2018-07-14T02:55:23.590Z,72.34
2018-07-14T02:57:52.414Z,72.71
2018-07-14T03:00:21.039Z,72.50
2018-07-14T03:02:49.594Z,72.45
2018-07-14T03:05:18.133Z,73.06
2018-07-14T03:07:47.089Z,72.96
2018-07-14T03:10:15.711Z,73.06
2018-07-14T03:12:44.464Z,73.00
2018-07-14T03:15:13.032Z,72.79
2018-07-14T03:17:41.680Z,72.94
2018-07-14T03:20:10.309Z,72.79
2018-07-14T03:22:39.028Z,73.10
2018-07-14T03:25:07.712Z,72.95
2018-07-14T03:27:36.337Z,72.78
2018-07-14T03:30:05.031Z,72.79
2018-07-14T03:32:33.635Z,72.66
2018-07-14T03:35:02.455Z,72.46
2018-07-14T03:37:31.111Z,72.54
2018-07-14T03:39:59.699Z,72.23
2018-07-14T03:42:28.306Z,72.57
2018-07-14T03:44:56.915Z,72.37
2018-07-14T03:47:25.620Z,72.31
2018-07-14T03:49:54.266Z,72.70
2018-07-14T03:52:22.936Z,73.23
2018-07-14T03:54:51.584Z,72.85
2018-07-14T03:57:20.232Z,72.58
2018-07-14T03:59:49.003Z,72.45
2018-07-14T04:02:17.811Z,72.50
2018-07-14T04:04:46.477Z,72.87
2018-07-14T04:07:15.147Z,73.22
2018-07-14T04:09:43.990Z,73.02
2018-07-14T04:12:12.982Z,72.76
2018-07-14T04:14:41.835Z,72.50
2018-07-14T04:17:10.610Z,72.83
2018-07-14T04:19:39.371Z,72.49
2018-07-14T04:22:07.963Z,72.37
2018-07-14T04:24:36.874Z,72.02
2018-07-14T04:27:05.526Z,71.97
2018-07-14T04:29:34.368Z,71.79
2018-07-14T04:32:03.038Z,71.83
2018-07-14T04:34:31.726Z,71.44
2018-07-14T04:37:00.492Z,71.18
2018-07-14T04:39:29.109Z,70.58
2018-07-14T04:41:57.800Z,70.76
2018-07-14T04:44:26.600Z,70.65
2018-07-14T04:46:55.437Z,70.40
2018-07-14T04:49:24.118Z,70.02
2018-07-14T04:51:52.801Z,69.67
2018-07-14T04:54:21.523Z,68.80
2018-07-14T04:56:50.092Z,69.02
2018-07-14T04:59:18.697Z,69.16
2018-07-14T05:01:47.739Z,68.35
2018-07-14T05:04:16.404Z,68.33
2018-07-14T05:06:45.001Z,68.05
2018-07-14T05:09:13.775Z,67.64
2018-07-14T05:11:42.377Z,67.32
2018-07-14T05:14:10.979Z,66.29
2018-07-14T05:16:39.707Z,66.13
2018-07-14T05:19:08.366Z,65.40
2018-07-14T05:21:37.058Z,64.69
2018-07-14T05:24:05.784Z,64.74
2018-07-14T05:26:34.549Z,64.32
2018-07-14T05:29:03.183Z,63.77
2018-07-14T05:31:31.910Z,62.20
2018-07-14T05:34:00.542Z,62.70
2018-07-14T05:36:29.141Z,62.41
2018-07-14T05:38:57.791Z,62.18
2018-07-14T05:41:26.402Z,61.58
2018-07-14T05:43:55.320Z,60.89
2018-07-14T05:46:23.922Z,60.61
2018-07-14T05:48:52.581Z,60.59
2018-07-14T05:51:21.244Z,60.29
2018-07-14T05:53:49.866Z,59.60
2018-07-14T05:56:18.552Z,59.13
2018-07-14T05:58:47.334Z,59.26
2018-07-14T06:01:16.219Z,58.09
2018-07-14T06:03:45.110Z,58.10
2018-07-14T06:06:13.987Z,58.17
2018-07-14T06:08:42.760Z,58.14
2018-07-14T06:11:11.448Z,58.01
2018-07-14T06:13:40.053Z,58.90
2018-07-14T06:16:08.709Z,58.31
2018-07-14T06:18:37.554Z,56.76
2018-07-14T06:21:06.229Z,55.23
2018-07-14T06:23:34.967Z,55.58
2018-07-14T06:26:03.740Z,51.74
2018-07-14T06:28:32.412Z,54.14
2018-07-14T06:31:00.959Z,54.05
2018-07-14T06:33:29.593Z,53.31
2018-07-14T06:35:58.232Z,53.24
2018-07-14T06:38:26.939Z,52.50
2018-07-14T06:40:55.570Z,53.88
2018-07-14T06:43:24.223Z,51.70
2018-07-14T06:45:52.902Z,51.31
2018-07-14T06:48:21.461Z,51.55
2018-07-14T06:50:50.108Z,51.86
2018-07-14T06:53:18.737Z,50.58
2018-07-14T06:55:47.752Z,49.89
2018-07-14T06:58:16.462Z,51.06
2018-07-14T07:00:45.033Z,50.52
2018-07-14T07:03:13.778Z,50.83
2018-07-14T07:05:42.363Z,50.05
2018-07-14T07:08:10.999Z,45.90
2018-07-14T07:10:39.839Z,47.76
2018-07-14T07:13:08.440Z,46.98
2018-07-14T07:15:37.109Z,46.06
2018-07-14T07:18:05.753Z,47.14
2018-07-14T07:20:34.410Z,47.04
2018-07-14T07:23:03.179Z,46.14
2018-07-14T07:25:31.943Z,46.94
2018-07-14T07:28:00.596Z,46.13
2018-07-14T07:30:29.266Z,47.08
2018-07-14T07:32:58.073Z,47.04
2018-07-14T07:35:26.849Z,46.69
2018-07-14T07:37:55.457Z,46.49
2018-07-14T07:40:24.024Z,45.75
2018-07-14T07:42:52.686Z,44.15
2018-07-14T07:45:21.401Z,44.54
2018-07-14T07:47:50.066Z,43.85
2018-07-14T07:50:18.663Z,43.24
2018-07-14T07:52:47.378Z,42.45
2018-07-14T07:55:16.115Z,43.06
2018-07-14T07:57:44.872Z,42.89
2018-07-14T08:00:13.662Z,43.60
2018-07-14T08:02:42.351Z,40.61
2018-07-14T08:05:11.016Z,40.84
2018-07-14T08:07:39.914Z,41.19
2018-07-14T08:10:08.541Z,41.22
2018-07-14T08:12:37.332Z,42.46
2018-07-14T08:15:06.005Z,42.15
2018-07-14T08:17:34.695Z,41.49
2018-07-14T08:23:34.501Z,40.38
2018-07-14T08:26:03.177Z,40.19
2018-07-14T08:28:31.872Z,37.57
2018-07-14T08:31:00.440Z,39.88
2018-07-14T08:33:29.277Z,39.13
2018-07-14T08:35:57.964Z,36.71
2018-07-14T08:38:26.646Z,37.26
2018-07-14T08:40:55.376Z,36.45
2018-07-14T08:43:24.063Z,36.95
2018-07-14T08:45:52.782Z,36.77
2018-07-14T08:48:21.573Z,37.22
2018-07-14T08:50:50.224Z,36.79
2018-07-14T08:53:18.925Z,37.29
2018-07-14T08:55:48.047Z,35.49
2018-07-14T08:58:16.717Z,35.97
2018-07-14T09:00:45.352Z,34.38
2018-07-14T09:03:14.032Z,33.39
2018-07-14T09:05:42.663Z,33.83
2018-07-14T09:08:11.561Z,33.07
2018-07-14T09:10:40.273Z,34.17
2018-07-14T09:13:08.991Z,33.21
2018-07-14T09:15:37.614Z,33.58
2018-07-14T09:18:06.337Z,33.59
2018-07-14T09:20:35.097Z,33.86
2018-07-14T09:23:03.738Z,32.98
2018-07-14T09:25:32.419Z,30.94
2018-07-14T09:28:01.112Z,32.99
2018-07-14T09:30:29.776Z,30.60
2018-07-14T09:32:58.421Z,31.02
2018-07-14T09:35:27.211Z,31.65
2018-07-14T09:37:56.010Z,30.91
2018-07-14T09:40:24.626Z,30.72
2018-07-14T09:42:53.550Z,28.41
2018-07-14T09:45:22.254Z,28.54
2018-07-14T09:47:50.979Z,29.55
2018-07-14T09:50:19.599Z,28.67
2018-07-14T09:52:48.261Z,27.76
2018-07-14T09:55:16.936Z,29.53
2018-07-14T09:57:45.698Z,27.44
2018-07-14T10:00:19.451Z,28.80
2018-07-14T10:02:48.088Z,27.17
2018-07-14T10:05:16.742Z,27.81
2018-07-14T10:07:45.488Z,28.80
2018-07-14T10:10:14.460Z,28.24
2018-07-14T10:12:43.141Z,26.93
2018-07-14T10:15:12.039Z,27.55
2018-07-14T10:17:40.810Z,26.21
2018-07-14T10:20:09.355Z,27.75
2018-07-14T10:22:38.042Z,27.47
2018-07-14T10:25:06.998Z,26.75
2018-07-14T10:27:35.877Z,27.42
2018-07-14T10:30:04.502Z,27.08
2018-07-14T10:32:33.170Z,26.54
2018-07-14T10:35:01.864Z,25.28
2018-07-14T10:37:30.607Z,24.50
2018-07-14T10:39:59.337Z,24.53
2018-07-14T10:42:28.113Z,25.40
2018-07-14T10:44:56.821Z,26.59
2018-07-14T10:47:25.513Z,24.13
2018-07-14T10:49:54.163Z,23.73
2018-07-14T10:52:22.870Z,24.83
2018-07-14T10:54:51.524Z,25.65
2018-07-14T10:57:20.367Z,24.38
2018-07-14T10:59:49.093Z,24.98
2018-07-14T11:02:17.774Z,26.67
2018-07-14T11:04:46.509Z,23.98
2018-07-14T11:07:15.198Z,25.77
2018-07-14T11:09:43.828Z,25.21
2018-07-14T11:12:12.594Z,24.65
2018-07-14T11:14:41.304Z,23.99
2018-07-14T11:17:09.990Z,23.99
2018-07-14T11:19:38.641Z,23.50
2018-07-14T11:22:07.406Z,22.87
2018-07-14T11:24:36.094Z,22.44
2018-07-14T11:27:04.750Z,22.25
2018-07-14T11:29:33.568Z,21.96
2018-07-14T11:32:02.809Z,21.81
2018-07-14T11:34:31.470Z,22.92
2018-07-14T11:37:00.128Z,23.88
2018-07-14T11:39:28.806Z,27.37
2018-07-14T11:41:57.448Z,29.54
2018-07-14T11:44:26.412Z,31.31
2018-07-14T11:46:55.095Z,31.40
2018-07-14T11:49:23.854Z,29.15
2018-07-14T11:51:52.542Z,28.21
2018-07-14T11:54:21.411Z,28.56
2018-07-14T11:56:50.174Z,28.97
2018-07-14T11:59:18.950Z,30.08
2018-07-14T12:01:47.719Z,30.03
2018-07-14T12:04:16.629Z,29.61
2018-07-14T12:06:45.318Z,30.76
2018-07-14T12:09:13.979Z,31.94
2018-07-14T12:11:42.588Z,32.31
2018-07-14T12:14:11.519Z,33.76
2018-07-14T12:16:40.313Z,33.79
2018-07-14T12:19:09.227Z,32.78
2018-07-14T12:21:37.889Z,32.97
2018-07-14T12:24:06.653Z,33.70
2018-07-14T12:26:35.359Z,34.23
2018-07-14T12:29:04.067Z,33.73
2018-07-14T12:31:32.823Z,33.40
2018-07-14T12:34:01.532Z,32.97
2018-07-14T12:36:30.311Z,33.61
2018-07-14T12:38:58.999Z,33.40
2018-07-14T12:41:27.742Z,35.42
2018-07-14T12:43:56.395Z,36.13
2018-07-14T12:46:25.104Z,35.99
2018-07-14T12:48:53.909Z,36.23
2018-07-14T12:51:22.561Z,36.74
2018-07-14T12:53:51.472Z,35.86
2018-07-14T12:56:20.113Z,35.21
2018-07-14T12:58:49.033Z,34.63
2018-07-14T13:01:17.648Z,33.66
2018-07-14T13:03:46.297Z,34.28
2018-07-14T13:06:15.003Z,33.29
2018-07-14T13:08:43.640Z,33.32
2018-07-14T13:11:12.280Z,33.11
2018-07-14T13:13:41.013Z,32.84
2018-07-14T13:16:09.698Z,31.43
2018-07-14T13:18:38.323Z,31.05
2018-07-14T13:21:07.134Z,29.04
2018-07-14T13:23:36.203Z,28.96
2018-07-14T13:26:04.819Z,26.60
2018-07-14T13:28:33.571Z,26.25
2018-07-14T13:31:02.360Z,25.42
2018-07-14T13:33:31.157Z,23.95
2018-07-14T13:35:59.880Z,21.30
2018-07-14T13:38:28.462Z,20.96
2018-07-14T13:40:57.069Z,20.88
2018-07-14T13:43:25.713Z,21.13
2018-07-14T13:45:54.421Z,20.46
2018-07-14T13:48:23.070Z,20.92
2018-07-14T13:50:51.785Z,21.95
2018-07-14T13:53:20.533Z,20.86
2018-07-14T13:55:49.307Z,21.52
2018-07-14T13:58:17.974Z,22.24
2018-07-14T14:00:46.701Z,23.63
2018-07-14T14:03:15.380Z,24.64
2018-07-14T14:05:44.068Z,25.60
2018-07-14T14:08:12.797Z,25.67
2018-07-14T14:10:41.472Z,26.05
2018-07-14T14:13:10.262Z,26.71
2018-07-14T14:15:39.313Z,26.41
2018-07-14T14:18:07.984Z,26.56
2018-07-14T14:20:36.643Z,28.54
2018-07-14T14:23:05.247Z,28.51
2018-07-14T14:25:34.181Z,28.89
2018-07-14T14:28:02.883Z,29.22
2018-07-14T14:30:31.551Z,30.77
2018-07-14T14:33:00.252Z,31.43
2018-07-14T14:35:29.019Z,32.22
2018-07-14T14:37:57.773Z,32.74
2018-07-14T14:40:26.579Z,32.88
2018-07-14T14:42:55.242Z,32.78
2018-07-14T14:45:23.850Z,33.05
2018-07-14T14:47:52.675Z,31.00
2018-07-14T14:50:21.532Z,29.16
2018-07-14T14:52:50.326Z,29.31
2018-07-14T14:55:19.043Z,31.17
2018-07-14T14:57:47.643Z,31.83
2018-07-14T15:00:16.348Z,31.78
2018-07-14T15:02:45.505Z,29.90
2018-07-14T15:05:14.157Z,25.08
2018-07-14T15:07:43.071Z,23.09
2018-07-14T15:10:11.785Z,23.12
2018-07-14T15:12:40.397Z,23.95
2018-07-14T15:15:09.193Z,23.49
2018-07-14T15:17:38.275Z,22.00
2018-07-14T15:20:07.074Z,23.18
2018-07-14T15:22:35.866Z,23.43
2018-07-14T15:25:04.667Z,23.45
2018-07-14T15:27:33.575Z,25.10
2018-07-14T15:30:02.313Z,26.36
2018-07-14T15:32:31.077Z,27.40
2018-07-14T15:34:59.813Z,27.62
2018-07-14T15:37:28.410Z,29.86
2018-07-14T15:39:57.049Z,30.83
2018-07-14T15:42:25.763Z,31.49
2018-07-14T15:44:54.339Z,31.60
2018-07-14T15:47:23.026Z,32.22
2018-07-14T15:49:51.900Z,31.75
2018-07-14T15:52:20.585Z,32.17
2018-07-14T15:54:49.189Z,32.02
2018-07-14T15:57:17.861Z,32.24
2018-07-14T15:59:46.735Z,32.32
2018-07-14T16:02:15.380Z,32.72
2018-07-14T16:04:44.077Z,32.39
2018-07-14T16:07:12.984Z,32.45
2018-07-14T16:09:41.591Z,33.17
2018-07-14T16:12:10.404Z,33.54
2018-07-14T16:14:41.490Z,32.88
2018-07-14T16:17:10.575Z,33.22
2018-07-14T16:19:39.285Z,34.23
2018-07-14T16:22:08.290Z,33.19
2018-07-14T16:24:36.967Z,33.83
2018-07-14T16:27:05.690Z,33.88
2018-07-14T16:29:34.376Z,33.30
2018-07-14T16:32:03.174Z,33.46
2018-07-14T16:34:31.814Z,33.17
2018-07-14T16:37:00.544Z,33.34
2018-07-14T16:39:29.113Z,33.76
2018-07-14T16:41:57.811Z,33.91
2018-07-14T16:44:26.696Z,33.75
2018-07-14T16:46:55.426Z,33.75
2018-07-14T16:49:24.161Z,34.06
2018-07-14T16:51:53.315Z,34.76
2018-07-14T16:54:22.114Z,35.21
2018-07-14T16:56:51.165Z,36.13
2018-07-14T16:59:19.836Z,35.71
2018-07-14T17:01:48.840Z,36.03
2018-07-14T17:04:17.557Z,35.63
2018-07-14T17:06:46.215Z,35.39
2018-07-14T17:09:14.891Z,35.91
2018-07-14T17:11:43.614Z,35.44
2018-07-14T17:14:12.308Z,35.19
2018-07-14T17:16:41.147Z,35.41
2018-07-14T17:19:09.951Z,35.69
2018-07-14T17:21:38.570Z,36.13
2018-07-14T17:24:07.226Z,36.15
2018-07-14T17:26:35.970Z,36.20
2018-07-14T17:29:04.771Z,36.22
2018-07-14T17:31:33.653Z,36.49
2018-07-14T17:34:02.325Z,36.67
2018-07-14T17:36:30.955Z,36.58
2018-07-14T17:38:59.602Z,36.87
2018-07-14T17:41:28.384Z,36.90
2018-07-14T17:43:57.145Z,37.66
2018-07-14T17:46:25.821Z,37.58
2018-07-14T17:48:54.511Z,38.35
2018-07-14T17:51:23.275Z,38.39
2018-07-14T17:53:52.092Z,38.17
2018-07-14T17:56:20.700Z,38.76
2018-07-14T17:58:49.640Z,38.32
2018-07-14T18:01:18.351Z,39.26
2018-07-14T18:03:46.939Z,38.76
2018-07-14T18:06:15.660Z,39.17
2018-07-14T18:08:44.312Z,39.15
2018-07-14T18:11:12.959Z,39.30
2018-07-14T18:14:11.839Z,39.76
2018-07-14T18:16:40.798Z,40.83
2018-07-14T18:19:09.423Z,40.35
2018-07-14T18:21:38.136Z,40.41
2018-07-14T18:24:06.919Z,40.00
2018-07-14T18:26:35.591Z,40.33
2018-07-14T18:29:04.253Z,40.52
2018-07-14T18:31:32.912Z,41.00
2018-07-14T18:34:01.565Z,40.76
2018-07-14T18:36:30.132Z,41.33
2018-07-14T18:38:58.749Z,41.87
2018-07-14T18:41:27.331Z,41.74
2018-07-14T18:43:56.034Z,41.46
2018-07-14T18:46:24.617Z,42.05
2018-07-14T18:51:52.399Z,42.33
2018-07-14T18:54:21.095Z,42.95
2018-07-14T18:56:49.738Z,42.15
2018-07-14T18:59:18.440Z,42.75
2018-07-14T19:01:47.155Z,43.02
2018-07-14T19:04:15.922Z,43.48
2018-07-14T19:06:44.610Z,43.61
2018-07-14T19:09:13.321Z,44.12
2018-07-14T19:11:42.033Z,44.39
2018-07-14T19:14:10.673Z,44.38
2018-07-14T19:16:39.344Z,44.20
2018-07-14T19:19:07.986Z,44.63
2018-07-14T19:21:36.659Z,45.19
2018-07-14T19:24:05.490Z,45.10
2018-07-14T19:26:34.263Z,45.21
2018-07-14T19:29:03.028Z,45.44
2018-07-14T19:31:31.696Z,46.86
2018-07-14T19:34:00.395Z,45.64
2018-07-14T19:36:29.213Z,45.58
2018-07-14T19:38:57.858Z,46.12
2018-07-14T19:41:26.666Z,46.24
2018-07-14T19:43:55.509Z,46.12
2018-07-14T19:46:24.142Z,46.17
2018-07-14T19:48:52.929Z,46.86
2018-07-14T19:51:21.631Z,46.66
2018-07-14T19:53:50.383Z,47.04
2018-07-14T19:56:19.528Z,47.15
2018-07-14T19:58:48.362Z,46.83
2018-07-14T20:01:16.983Z,46.52
2018-07-14T20:03:45.565Z,47.09
2018-07-14T20:06:14.425Z,47.44
2018-07-14T20:08:43.039Z,47.37
2018-07-14T20:11:11.816Z,47.74
2018-07-14T20:13:40.505Z,47.62
2018-07-14T20:16:09.995Z,47.47
2018-07-14T20:18:39.012Z,47.57
2018-07-14T20:21:07.639Z,48.34
2018-07-14T20:23:36.654Z,48.64
2018-07-14T20:26:05.343Z,48.90
2018-07-14T20:28:34.067Z,48.75
2018-07-14T20:31:02.734Z,49.00
2018-07-14T20:33:31.516Z,49.26
2018-07-14T20:36:00.140Z,49.33
2018-07-14T20:38:29.122Z,48.89
2018-07-14T20:40:57.866Z,49.08
2018-07-14T20:43:26.474Z,49.13
2018-07-14T20:45:56.488Z,49.88
2018-07-14T20:48:25.180Z,50.27
2018-07-14T20:50:53.835Z,50.40
2018-07-14T20:53:23.448Z,49.91
2018-07-14T20:55:52.523Z,50.06
2018-07-14T20:58:21.171Z,49.96
2018-07-14T21:00:49.936Z,50.32
2018-07-14T21:03:18.564Z,50.26
2018-07-14T21:05:47.269Z,50.82
2018-07-14T21:08:15.903Z,51.29
2018-07-14T21:10:44.590Z,51.73
2018-07-14T21:13:13.232Z,52.30
2018-07-14T21:15:42.888Z,51.76
2018-07-14T21:18:11.519Z,52.50
2018-07-14T21:20:40.218Z,52.61
2018-07-14T21:23:08.822Z,52.99
2018-07-14T21:25:37.500Z,52.53
2018-07-14T21:28:06.249Z,52.71
2018-07-14T21:30:34.919Z,53.34
2018-07-14T21:33:03.719Z,53.65
2018-07-14T21:35:32.455Z,54.37
2018-07-14T21:38:01.134Z,54.11
2018-07-14T21:40:29.804Z,54.67
2018-07-14T21:42:58.429Z,54.73
2018-07-14T21:45:27.117Z,55.40
2018-07-14T21:47:56.059Z,55.19
2018-07-14T21:50:24.794Z,55.54
2018-07-14T21:52:53.352Z,55.98
2018-07-14T21:55:22.058Z,55.97
2018-07-14T21:57:50.855Z,55.66
2018-07-14T22:00:33.596Z,56.02
2018-07-14T22:03:04.667Z,56.13
2018-07-14T22:05:33.402Z,56.39
2018-07-14T22:08:02.128Z,56.71
2018-07-14T22:10:30.766Z,57.28
2018-07-14T22:12:59.394Z,57.26
2018-07-14T22:15:28.095Z,57.40
2018-07-14T22:17:56.838Z,57.97
2018-07-14T22:20:25.659Z,58.39
2018-07-14T22:22:54.578Z,58.83
2018-07-14T22:25:23.408Z,59.00
2018-07-14T22:27:52.115Z,59.24
2018-07-14T22:30:20.966Z,59.46
2018-07-14T22:32:49.709Z,59.01
2018-07-14T22:35:18.568Z,59.70
2018-07-14T22:37:47.144Z,59.89
2018-07-14T22:40:15.843Z,59.64
2018-07-14T22:42:44.514Z,59.97
2018-07-14T22:45:13.321Z,60.75
2018-07-14T22:47:42.104Z,60.67
2018-07-14T22:50:10.924Z,60.26
2018-07-14T22:52:39.810Z,60.80
2018-07-14T22:55:08.691Z,60.76
2018-07-14T22:57:37.389Z,61.18
2018-07-14T23:00:07.116Z,61.49
2018-07-14T23:02:35.810Z,61.33
2018-07-14T23:05:04.451Z,61.72
2018-07-14T23:07:33.099Z,61.59
2018-07-14T23:10:01.791Z,62.69
2018-07-14T23:12:30.583Z,62.15
2018-07-14T23:14:59.321Z,62.58
2018-07-14T23:17:27.943Z,62.52
2018-07-14T23:19:56.879Z,62.69
2018-07-14T23:22:25.545Z,62.99
2018-07-14T23:24:54.256Z,63.41
2018-07-14T23:27:22.943Z,63.06
2018-07-14T23:29:51.572Z,63.33
2018-07-14T23:32:20.287Z,63.90
2018-07-14T23:34:49.020Z,63.42
2018-07-14T23:37:17.658Z,63.14
2018-07-14T23:39:46.430Z,64.24
2018-07-14T23:42:15.114Z,65.50
2018-07-14T23:44:43.824Z,64.79
2018-07-14T23:47:12.595Z,65.31
2018-07-14T23:49:41.278Z,65.37
2018-07-14T23:52:09.888Z,65.01
2018-07-14T23:54:38.787Z,65.43
2018-07-14T23:57:07.702Z,65.03
2018-07-14T23:59:36.548Z,66.21
